createdAt,value
2019-02-21T00:01:01.534Z,9.90
2019-02-21T00:03:30.410Z,9.80
2019-02-21T00:05:58.810Z,9.80
2019-02-21T00:08:27.578Z,9.80
2019-02-21T00:10:56.362Z,9.90
2019-02-21T00:13:24.810Z,9.80
2019-02-21T00:15:53.530Z,9.90
2019-02-21T00:18:21.947Z,9.90
2019-02-21T00:20:50.415Z,9.80
2019-02-21T00:23:19.145Z,9.80
2019-02-21T00:25:47.579Z,9.80
2019-02-21T00:28:15.984Z,9.80
2019-02-21T00:30:44.418Z,9.70
2019-02-21T00:33:12.832Z,9.70
2019-02-21T00:35:41.591Z,9.60
2019-02-21T00:38:10.401Z,9.60
2019-02-21T00:40:38.898Z,9.60
2019-02-21T00:43:07.374Z,9.50
2019-02-21T00:45:37.404Z,9.50
2019-02-21T00:48:05.802Z,9.50
2019-02-21T00:50:34.505Z,9.50
2019-02-21T00:53:03.198Z,9.50
2019-02-21T00:55:31.968Z,9.50
2019-02-21T00:58:00.374Z,9.40
2019-02-21T01:00:28.948Z,9.40
2019-02-21T01:02:57.374Z,9.40
2019-02-21T01:05:25.804Z,9.40
2019-02-21T01:07:54.589Z,9.40
2019-02-21T01:10:23.019Z,9.40
2019-02-21T01:12:51.427Z,9.40
2019-02-21T01:15:19.863Z,9.40
2019-02-21T01:17:48.618Z,9.40
2019-02-21T01:20:17.403Z,9.40
2019-02-21T01:22:45.823Z,9.30
2019-02-21T01:25:14.251Z,9.30
2019-02-21T01:27:42.657Z,9.30
2019-02-21T01:30:11.341Z,9.20
2019-02-21T01:32:39.750Z,9.20
2019-02-21T01:35:08.597Z,9.20
2019-02-21T01:37:37.266Z,9.20
2019-02-21T01:40:07.958Z,9.20
2019-02-21T01:42:36.730Z,9.20
2019-02-21T01:45:06.541Z,9.20
2019-02-21T01:47:35.849Z,9.20
2019-02-21T01:50:06.261Z,9.20
2019-02-21T01:52:34.763Z,9.20
2019-02-21T01:55:03.903Z,9.10
2019-02-21T01:57:32.615Z,9.10
2019-02-21T02:00:01.047Z,9.00
2019-02-21T02:02:29.762Z,9.00
2019-02-21T02:04:58.201Z,8.90
2019-02-21T02:07:26.878Z,8.90
2019-02-21T02:09:55.361Z,8.80
2019-02-21T02:12:24.163Z,8.90
2019-02-21T02:14:52.586Z,8.90
2019-02-21T02:17:21.049Z,8.90
2019-02-21T02:19:49.493Z,8.90
2019-02-21T02:22:18.159Z,9.00
2019-02-21T02:24:46.610Z,8.90
2019-02-21T02:27:15.002Z,8.90
2019-02-21T02:29:43.435Z,8.90
2019-02-21T02:32:11.915Z,8.80
2019-02-21T02:34:40.355Z,8.70
2019-02-21T02:37:08.834Z,8.70
2019-02-21T02:39:37.274Z,8.70
2019-02-21T02:42:06.054Z,8.70
2019-02-21T02:44:34.509Z,8.70
2019-02-21T02:47:02.917Z,8.70
2019-02-21T02:49:31.372Z,8.70
2019-02-21T02:51:59.921Z,8.70
2019-02-21T02:54:28.771Z,8.70
2019-02-21T02:56:57.291Z,8.70
2019-02-21T02:59:25.791Z,8.70
2019-02-21T03:01:54.439Z,8.70
2019-02-21T03:04:23.361Z,8.70
2019-02-21T03:06:51.829Z,8.70
2019-02-21T03:09:20.704Z,8.70
2019-02-21T03:11:51.726Z,8.60
2019-02-21T03:14:19.293Z,8.60
2019-02-21T03:16:48.259Z,8.60
2019-02-21T03:19:16.952Z,8.60
2019-02-21T03:21:45.382Z,8.60
2019-02-21T03:24:13.906Z,8.60
2019-02-21T03:26:42.709Z,8.60
2019-02-21T03:29:11.126Z,8.60
2019-02-21T03:31:53.376Z,8.50
2019-02-21T03:34:09.703Z,8.50
2019-02-21T03:36:38.137Z,8.50
2019-02-21T03:39:08.192Z,8.60
2019-02-21T03:41:36.697Z,8.50
2019-02-21T03:44:05.110Z,8.50
2019-02-21T03:46:33.964Z,8.50
2019-02-21T03:49:02.721Z,8.50
2019-02-21T03:51:31.175Z,8.40
2019-02-21T03:53:59.664Z,8.30
2019-02-21T03:56:28.101Z,8.30
2019-02-21T03:58:56.835Z,8.30
2019-02-21T04:01:26.323Z,8.30
2019-02-21T04:03:55.059Z,8.30
2019-02-21T04:06:23.583Z,8.30
2019-02-21T04:08:52.226Z,8.30
2019-02-21T04:11:20.981Z,8.30
2019-02-21T04:13:49.997Z,8.30
2019-02-21T04:16:18.402Z,8.30
2019-02-21T04:18:46.806Z,8.40
2019-02-21T04:21:15.453Z,8.40
2019-02-21T04:23:43.926Z,8.30
2019-02-21T04:26:12.515Z,8.40
2019-02-21T04:28:40.928Z,8.40
2019-02-21T04:31:09.848Z,8.40
2019-02-21T04:33:38.717Z,8.40
2019-02-21T04:36:07.517Z,8.40
2019-02-21T04:38:36.142Z,8.40
2019-02-21T04:41:04.618Z,8.40
2019-02-21T04:43:33.026Z,8.40
2019-02-21T04:46:01.975Z,8.40
2019-02-21T04:48:30.653Z,8.50
2019-02-21T04:50:59.065Z,8.40
2019-02-21T04:53:28.025Z,8.40
2019-02-21T04:55:58.234Z,8.40
2019-02-21T04:58:26.689Z,8.30
2019-02-21T05:00:55.627Z,8.20
2019-02-21T05:03:24.042Z,8.20
2019-02-21T05:05:52.730Z,8.20
2019-02-21T05:08:21.470Z,8.20
2019-02-21T05:10:50.105Z,8.10
2019-02-21T05:13:18.527Z,8.10
2019-02-21T05:15:46.922Z,8.10
2019-02-21T05:18:15.645Z,8.00
2019-02-21T05:20:44.201Z,8.00
2019-02-21T05:23:12.616Z,8.00
2019-02-21T05:25:41.192Z,7.90
2019-02-21T05:28:29.247Z,7.90
2019-02-21T05:31:05.753Z,7.90
2019-02-21T05:33:36.071Z,7.90
2019-02-21T05:36:09.059Z,7.90
2019-02-21T05:38:42.423Z,7.90
2019-02-21T05:41:24.880Z,7.90
2019-02-21T05:43:55.579Z,7.90
2019-02-21T05:46:25.924Z,7.90
2019-02-21T05:48:55.978Z,7.90
2019-02-21T05:51:29.162Z,7.90
2019-02-21T05:54:14.917Z,7.90
2019-02-21T05:56:45.445Z,7.90
2019-02-21T05:59:18.483Z,7.90
2019-02-21T06:01:51.562Z,7.80
2019-02-21T06:04:24.714Z,7.80
2019-02-21T06:07:12.050Z,7.80
2019-02-21T06:09:47.949Z,7.80
2019-02-21T06:12:33.214Z,7.80
2019-02-21T06:14:55.772Z,7.80
2019-02-21T06:17:29.237Z,7.90
2019-02-21T06:20:02.087Z,7.90
2019-02-21T06:22:32.177Z,7.90
2019-02-21T06:25:05.204Z,8.00
2019-02-21T06:27:41.290Z,8.00
2019-02-21T06:30:11.597Z,8.00
2019-02-21T06:32:40.919Z,8.00
2019-02-21T06:35:10.981Z,8.00
2019-02-21T06:37:39.684Z,8.00
2019-02-21T06:40:08.160Z,8.00
2019-02-21T06:42:36.814Z,8.00
2019-02-21T06:45:06.558Z,8.00
2019-02-21T06:47:35.441Z,8.00
2019-02-21T06:50:05.249Z,7.90
2019-02-21T06:52:34.137Z,7.90
2019-02-21T06:55:02.736Z,7.80
2019-02-21T06:57:31.709Z,7.80
2019-02-21T07:00:00.408Z,7.80
2019-02-21T07:02:28.989Z,7.80
2019-02-21T07:04:57.442Z,7.70
2019-02-21T07:07:26.356Z,7.70
2019-02-21T07:09:54.825Z,7.60
2019-02-21T07:12:23.510Z,7.60
2019-02-21T07:14:52.134Z,7.60
2019-02-21T07:17:20.608Z,7.60
2019-02-21T07:19:49.473Z,7.60
2019-02-21T07:22:20.050Z,7.70
2019-02-21T07:24:49.892Z,7.70
2019-02-21T07:27:18.607Z,7.80
2019-02-21T07:29:47.325Z,7.80
2019-02-21T07:32:16.174Z,7.80
2019-02-21T07:34:44.814Z,7.80
2019-02-21T07:37:18.615Z,7.90
2019-02-21T07:39:43.716Z,7.90
2019-02-21T07:42:12.219Z,8.00
2019-02-21T07:44:41.034Z,8.00
2019-02-21T07:47:09.815Z,8.00
2019-02-21T07:49:38.553Z,8.00
2019-02-21T07:52:07.450Z,8.10
2019-02-21T07:54:36.402Z,8.10
2019-02-21T07:57:05.291Z,8.20
2019-02-21T07:59:34.066Z,8.20
2019-02-21T08:02:02.591Z,8.20
2019-02-21T08:04:31.431Z,8.30
2019-02-21T08:06:59.869Z,8.30
2019-02-21T08:09:28.605Z,8.30
2019-02-21T08:11:57.038Z,8.40
2019-02-21T08:14:25.478Z,8.50
2019-02-21T08:16:56.090Z,8.60
2019-02-21T08:19:24.047Z,8.70
2019-02-21T08:21:52.642Z,8.80
2019-02-21T08:24:21.243Z,8.80
2019-02-21T08:26:49.911Z,8.90
2019-02-21T08:29:20.638Z,8.90
2019-02-21T08:31:48.814Z,8.90
2019-02-21T08:34:18.939Z,8.90
2019-02-21T08:36:47.331Z,8.90
2019-02-21T08:39:16.103Z,8.90
2019-02-21T08:41:44.543Z,9.00
2019-02-21T08:44:12.991Z,8.90
2019-02-21T08:46:41.410Z,9.00
2019-02-21T08:49:10.123Z,9.00
2019-02-21T08:51:38.923Z,9.10
2019-02-21T08:54:07.343Z,9.10
2019-02-21T08:56:35.819Z,9.20
2019-02-21T08:59:04.346Z,9.20
2019-02-21T09:01:33.044Z,9.30
2019-02-21T09:04:10.044Z,9.30
2019-02-21T09:06:32.062Z,9.40
2019-02-21T09:09:00.879Z,9.40
2019-02-21T09:11:29.471Z,9.50
2019-02-21T09:13:58.231Z,9.50
2019-02-21T09:16:26.825Z,9.60
2019-02-21T09:18:55.233Z,9.60
2019-02-21T09:21:24.266Z,9.60
2019-02-21T09:23:52.952Z,9.70
2019-02-21T09:26:21.816Z,9.60
2019-02-21T09:28:50.559Z,9.60
2019-02-21T09:31:19.057Z,9.60
2019-02-21T09:33:47.707Z,9.60
2019-02-21T09:36:16.104Z,9.60
2019-02-21T09:38:44.963Z,9.60
2019-02-21T09:41:13.960Z,9.60
2019-02-21T09:43:42.436Z,9.60
2019-02-21T09:46:11.339Z,9.60
2019-02-21T09:48:39.818Z,9.70
2019-02-21T09:51:08.423Z,9.70
2019-02-21T09:53:36.895Z,9.70
2019-02-21T09:56:05.975Z,9.70
2019-02-21T09:58:34.398Z,9.70
2019-02-21T10:01:02.814Z,9.80
2019-02-21T10:03:31.641Z,9.80
2019-02-21T10:06:00.149Z,9.90
2019-02-21T10:08:28.818Z,10.00
2019-02-21T10:10:57.236Z,10.00
2019-02-21T10:13:25.950Z,10.10
2019-02-21T10:15:54.563Z,10.20
2019-02-21T10:18:23.329Z,10.20
2019-02-21T10:20:51.738Z,10.20
2019-02-21T10:23:20.676Z,10.30
2019-02-21T10:25:49.095Z,10.30
2019-02-21T10:28:18.050Z,10.30
2019-02-21T10:30:46.456Z,10.40
2019-02-21T10:33:15.111Z,10.40
2019-02-21T10:35:43.735Z,10.40
2019-02-21T10:38:12.147Z,10.50
2019-02-21T10:40:41.075Z,10.50
2019-02-21T10:43:09.551Z,10.50
2019-02-21T10:45:47.372Z,10.70
2019-02-21T10:48:08.565Z,10.80
2019-02-21T10:50:37.186Z,10.90
2019-02-21T10:53:25.211Z,11.00
2019-02-21T10:55:53.622Z,11.00
2019-02-21T10:58:22.342Z,11.10
2019-02-21T11:00:50.971Z,11.10
2019-02-21T11:03:19.733Z,11.20
2019-02-21T11:05:48.648Z,11.30
2019-02-21T11:08:17.400Z,11.30
2019-02-21T11:10:46.043Z,11.40
2019-02-21T11:13:14.785Z,11.60
2019-02-21T11:15:43.761Z,11.70
2019-02-21T11:18:12.451Z,11.80
2019-02-21T11:20:40.874Z,11.90
2019-02-21T11:23:09.809Z,12.00
2019-02-21T11:25:38.603Z,12.00
2019-02-21T11:28:07.288Z,12.00
2019-02-21T11:30:36.282Z,12.00
2019-02-21T11:33:04.868Z,12.00
2019-02-21T11:35:33.274Z,12.00
2019-02-21T11:38:02.243Z,12.00
2019-02-21T11:40:30.655Z,11.90
2019-02-21T11:42:59.055Z,11.90
2019-02-21T11:45:27.717Z,11.90
2019-02-21T11:47:56.131Z,11.90
2019-02-21T11:50:24.555Z,11.80
2019-02-21T11:52:53.158Z,11.80
2019-02-21T11:55:23.606Z,11.70
2019-02-21T11:57:53.067Z,11.70
2019-02-21T12:00:29.349Z,11.70
2019-02-21T12:02:57.764Z,11.80
2019-02-21T12:05:32.335Z,11.90
2019-02-21T12:07:58.640Z,12.00
2019-02-21T12:10:27.343Z,12.20
2019-02-21T12:12:55.953Z,12.30
2019-02-21T12:15:24.358Z,12.30
2019-02-21T12:17:52.778Z,12.40
2019-02-21T12:20:21.620Z,12.40
2019-02-21T12:22:50.220Z,12.50
2019-02-21T12:25:21.935Z,12.50
2019-02-21T12:27:50.343Z,12.60
2019-02-21T12:30:20.007Z,12.70
2019-02-21T12:32:48.663Z,12.80
2019-02-21T12:35:28.757Z,12.90
2019-02-21T12:37:48.107Z,13.00
2019-02-21T12:40:23.586Z,13.00
2019-02-21T12:42:52.332Z,13.00
2019-02-21T12:45:26.364Z,13.00
2019-02-21T12:47:54.808Z,13.00
2019-02-21T12:50:24.113Z,13.00
2019-02-21T12:52:52.805Z,13.00
2019-02-21T12:55:28.035Z,13.00
2019-02-21T12:57:51.381Z,13.00
2019-02-21T13:00:21.241Z,13.00
2019-02-21T13:02:49.831Z,13.00
2019-02-21T13:05:18.309Z,12.90
2019-02-21T13:07:46.986Z,12.80
2019-02-21T13:10:18.216Z,12.80
2019-02-21T13:12:46.715Z,12.80
2019-02-21T13:15:15.792Z,12.90
2019-02-21T13:17:44.276Z,12.90
2019-02-21T13:20:14.406Z,13.00
2019-02-21T13:22:43.146Z,13.00
2019-02-21T13:25:19.380Z,13.00
2019-02-21T13:27:47.911Z,13.00
2019-02-21T13:30:17.259Z,13.00
2019-02-21T13:32:45.699Z,13.00
2019-02-21T13:35:14.205Z,13.00
2019-02-21T13:37:42.875Z,13.10
2019-02-21T13:40:13.519Z,13.00
2019-02-21T13:42:42.003Z,13.00
2019-02-21T13:45:13.035Z,13.00
2019-02-21T13:47:41.797Z,12.90
2019-02-21T13:50:18.051Z,12.90
2019-02-21T13:52:46.862Z,12.90
2019-02-21T13:55:15.458Z,12.90
2019-02-21T13:57:44.842Z,12.90
2019-02-21T14:00:15.851Z,12.80
2019-02-21T14:02:44.374Z,12.80
2019-02-21T14:05:14.471Z,12.80
2019-02-21T14:07:42.986Z,12.90
2019-02-21T14:10:14.887Z,12.90
2019-02-21T14:12:43.325Z,12.90
2019-02-21T14:15:20.332Z,12.90
2019-02-21T14:17:48.781Z,12.90
2019-02-21T14:20:17.182Z,12.90
2019-02-21T14:22:45.911Z,12.90
2019-02-21T14:25:14.698Z,12.90
2019-02-21T14:27:43.197Z,12.90
2019-02-21T14:30:14.151Z,12.90
2019-02-21T14:32:42.930Z,12.90
2019-02-21T14:35:12.805Z,12.80
2019-02-21T14:37:41.306Z,12.90
2019-02-21T14:40:12.516Z,12.90
2019-02-21T14:42:41.276Z,12.90
2019-02-21T14:45:24.872Z,12.90
2019-02-21T14:47:53.388Z,12.90
2019-02-21T14:50:21.799Z,12.90
2019-02-21T14:52:50.269Z,12.90
2019-02-21T14:55:18.748Z,12.90
2019-02-21T14:57:47.590Z,12.90
2019-02-21T15:00:26.674Z,12.90
2019-02-21T15:02:57.681Z,12.90
2019-02-21T15:05:25.764Z,13.00
2019-02-21T15:07:54.711Z,13.00
2019-02-21T15:10:23.397Z,13.00
2019-02-21T15:12:52.517Z,13.10
2019-02-21T15:15:27.520Z,13.10
2019-02-21T15:18:06.875Z,13.10
2019-02-21T15:20:36.446Z,13.00
2019-02-21T15:22:56.969Z,13.00
2019-02-21T15:25:25.584Z,13.00
2019-02-21T15:27:54.339Z,13.00
2019-02-21T15:30:26.403Z,12.90
2019-02-21T15:32:54.935Z,12.90
2019-02-21T15:35:23.657Z,12.90
2019-02-21T15:37:52.472Z,12.90
2019-02-21T15:40:21.235Z,12.90
2019-02-21T15:42:52.596Z,12.90
2019-02-21T15:45:24.373Z,12.90
2019-02-21T15:47:53.330Z,13.00
2019-02-21T15:50:21.810Z,13.00
2019-02-21T15:52:51.738Z,12.90
2019-02-21T15:55:21.291Z,13.00
2019-02-21T15:57:49.742Z,12.90
2019-02-21T16:00:19.696Z,12.90
2019-02-21T16:02:48.366Z,12.90
2019-02-21T16:05:17.037Z,12.90
2019-02-21T16:07:45.757Z,12.90
2019-02-21T16:10:16.998Z,12.80
2019-02-21T16:12:46.044Z,12.80
2019-02-21T16:15:16.350Z,12.80
2019-02-21T16:17:45.545Z,12.70
2019-02-21T16:20:16.683Z,12.70
2019-02-21T16:22:45.582Z,12.60
2019-02-21T16:25:22.973Z,12.60
2019-02-21T16:27:51.378Z,12.60
2019-02-21T16:30:22.073Z,12.60
2019-02-21T16:32:50.502Z,12.60
2019-02-21T16:35:18.912Z,12.60
2019-02-21T16:37:47.623Z,12.50
2019-02-21T16:40:17.746Z,12.40
2019-02-21T16:42:46.427Z,12.40
2019-02-21T16:45:19.328Z,12.40
2019-02-21T16:47:47.829Z,12.40
2019-02-21T16:50:16.671Z,12.40
2019-02-21T16:52:45.467Z,12.40
2019-02-21T16:55:19.090Z,12.40
2019-02-21T16:57:48.317Z,12.40
2019-02-21T17:00:19.687Z,12.50
2019-02-21T17:02:48.347Z,12.50
2019-02-21T17:05:16.829Z,12.50
2019-02-21T17:07:45.877Z,12.50
2019-02-21T17:10:16.100Z,12.50
2019-02-21T17:12:44.567Z,12.60
2019-02-21T17:15:17.383Z,12.60
2019-02-21T17:17:46.531Z,12.60
2019-02-21T17:20:25.089Z,12.60
2019-02-21T17:22:53.777Z,12.60
2019-02-21T17:25:22.439Z,12.50
2019-02-21T17:27:51.544Z,12.50
2019-02-21T17:30:20.477Z,12.50
2019-02-21T17:32:49.522Z,12.50
2019-02-21T17:35:18.420Z,12.50
2019-02-21T17:37:47.309Z,12.50
2019-02-21T17:40:21.054Z,12.50
2019-02-21T17:42:51.751Z,12.50
2019-02-21T17:45:20.261Z,12.40
2019-02-21T17:47:49.224Z,12.40
2019-02-21T17:50:18.674Z,12.40
2019-02-21T17:52:47.223Z,12.40
2019-02-21T17:55:16.659Z,12.40
2019-02-21T17:57:45.174Z,12.50
2019-02-21T18:00:20.651Z,12.40
2019-02-21T18:02:49.532Z,12.40
2019-02-21T18:05:17.977Z,12.30
2019-02-21T18:07:46.626Z,12.30
2019-02-21T18:10:17.239Z,12.30
2019-02-21T18:12:46.537Z,12.30
2019-02-21T18:15:16.587Z,12.20
2019-02-21T18:17:45.538Z,12.20
2019-02-21T18:20:15.190Z,12.10
2019-02-21T18:22:43.643Z,12.10
2019-02-21T18:25:24.426Z,12.00
2019-02-21T18:27:53.180Z,12.00
2019-02-21T18:30:21.658Z,12.00
2019-02-21T18:32:50.110Z,11.90
2019-02-21T18:35:18.539Z,11.90
2019-02-21T18:37:48.008Z,11.80
2019-02-21T18:40:24.879Z,11.80
2019-02-21T18:42:53.775Z,11.80
2019-02-21T18:45:22.566Z,11.80
2019-02-21T18:47:51.155Z,11.80
2019-02-21T18:50:20.033Z,11.80
2019-02-21T18:52:48.726Z,11.80
2019-02-21T18:55:17.303Z,11.80
2019-02-21T18:57:46.094Z,11.80
2019-02-21T19:00:18.003Z,11.80
2019-02-21T19:02:46.772Z,11.70
2019-02-21T19:05:15.548Z,11.70
2019-02-21T19:07:43.954Z,11.70
2019-02-21T19:10:17.699Z,11.70
2019-02-21T19:12:46.529Z,11.70
2019-02-21T19:15:17.226Z,11.70
2019-02-21T19:17:45.711Z,11.60
2019-02-21T19:20:16.041Z,11.60
2019-02-21T19:22:44.514Z,11.60
2019-02-21T19:25:14.247Z,11.60
2019-02-21T19:27:43.148Z,11.60
2019-02-21T19:30:15.087Z,11.60
2019-02-21T19:32:43.947Z,11.50
2019-02-21T19:35:12.700Z,11.50
2019-02-21T19:37:41.773Z,11.50
2019-02-21T19:40:10.990Z,11.60
2019-02-21T19:42:39.735Z,11.50
2019-02-21T19:45:09.542Z,11.50
2019-02-21T19:47:38.018Z,11.50
2019-02-21T19:50:09.146Z,11.50
2019-02-21T19:52:37.739Z,11.50
2019-02-21T19:55:10.578Z,11.50
2019-02-21T19:57:39.234Z,11.50
2019-02-21T20:00:11.924Z,11.50
2019-02-21T20:02:40.909Z,11.50
2019-02-21T20:05:09.514Z,11.50
2019-02-21T20:07:37.935Z,11.50
2019-02-21T20:10:08.754Z,11.60
2019-02-21T20:12:37.679Z,11.60
2019-02-21T20:15:09.119Z,11.70
2019-02-21T20:17:38.161Z,11.70
2019-02-21T20:20:12.755Z,11.60
2019-02-21T20:22:41.472Z,11.60
2019-02-21T20:25:10.068Z,11.60
2019-02-21T20:27:39.037Z,11.60
2019-02-21T20:30:16.186Z,11.60
2019-02-21T20:32:45.111Z,11.70
2019-02-21T20:35:14.072Z,11.60
2019-02-21T20:37:42.599Z,11.60
2019-02-21T20:40:12.076Z,11.60
2019-02-21T20:42:40.769Z,11.60
2019-02-21T20:45:14.149Z,11.60
2019-02-21T20:47:43.027Z,11.70
2019-02-21T20:50:12.693Z,11.70
2019-02-21T20:52:41.205Z,11.70
2019-02-21T20:55:11.185Z,11.70
2019-02-21T20:57:40.026Z,11.70
2019-02-21T21:00:11.367Z,11.80
2019-02-21T21:02:39.873Z,11.80
2019-02-21T21:05:08.659Z,11.80
2019-02-21T21:10:32.900Z,11.80
2019-02-21T21:13:01.589Z,11.80
2019-02-21T21:15:29.994Z,11.80
2019-02-21T21:17:58.722Z,11.70
2019-02-21T21:20:27.496Z,11.70
2019-02-21T21:22:55.950Z,11.70
2019-02-21T21:25:24.839Z,11.70
2019-02-21T21:27:53.444Z,11.60
2019-02-21T21:30:22.142Z,11.60
2019-02-21T21:32:50.620Z,11.50
2019-02-21T21:35:19.095Z,11.50
2019-02-21T21:37:47.803Z,11.50
2019-02-21T21:40:26.436Z,11.50
2019-02-21T21:43:04.284Z,11.50
2019-02-21T21:45:35.567Z,11.50
2019-02-21T21:48:20.722Z,11.40
2019-02-21T21:50:58.777Z,11.40
2019-02-21T21:53:51.915Z,11.50
2019-02-21T21:56:26.976Z,11.40
2019-02-21T21:59:07.919Z,11.50
2019-02-21T22:01:47.592Z,11.50
2019-02-21T22:04:21.147Z,11.50
2019-02-21T22:06:51.699Z,11.50
2019-02-21T22:09:27.507Z,11.50
2019-02-21T22:12:04.109Z,11.50
2019-02-21T22:14:40.910Z,11.50
2019-02-21T22:17:13.576Z,11.50
2019-02-21T22:19:51.830Z,11.50
2019-02-21T22:22:28.669Z,11.50
2019-02-21T22:25:05.012Z,11.50
2019-02-21T22:27:37.852Z,11.40
2019-02-21T22:30:12.211Z,11.40
2019-02-21T22:32:50.612Z,11.40
2019-02-21T22:35:22.577Z,11.40
2019-02-21T22:37:56.780Z,11.40
2019-02-21T22:40:31.970Z,11.40
2019-02-21T22:43:05.528Z,11.40
2019-02-21T22:45:37.933Z,11.40
2019-02-21T22:48:20.098Z,11.30
2019-02-21T22:50:50.979Z,11.30
2019-02-21T22:53:33.441Z,11.40
2019-02-21T22:56:25.874Z,11.40
2019-02-21T22:58:56.019Z,11.30
2019-02-21T23:01:40.147Z,11.30
2019-02-21T23:04:28.535Z,11.30
2019-02-21T23:07:17.897Z,11.30
2019-02-21T23:09:49.931Z,11.30
2019-02-21T23:12:27.879Z,11.30
2019-02-21T23:17:56.800Z,11.30
2019-02-21T23:20:39.502Z,11.30
2019-02-21T23:23:11.885Z,11.30
2019-02-21T23:25:45.020Z,11.30
2019-02-21T23:28:20.755Z,11.40
2019-02-21T23:31:03.671Z,11.40
2019-02-21T23:33:34.813Z,11.40
2019-02-21T23:36:15.607Z,11.40
2019-02-21T23:38:49.125Z,11.40
2019-02-21T23:41:39.712Z,11.40
2019-02-21T23:44:34.489Z,11.40
2019-02-21T23:47:11.235Z,11.40
2019-02-21T23:49:47.098Z,11.40
2019-02-21T23:52:37.246Z,11.40
2019-02-21T23:55:11.093Z,11.30
2019-02-21T23:57:48.934Z,11.40
